createdAt,value
2023-11-24T00:00:32.590Z,101534.69
2023-11-24T00:02:59.232Z,101538.13
2023-11-24T00:05:26.257Z,101546.84
2023-11-24T00:07:52.876Z,101534.78
2023-11-24T00:10:19.769Z,101535.75
2023-11-24T00:12:47.399Z,101527.09
2023-11-24T00:15:14.054Z,101533.22
2023-11-24T00:17:40.652Z,101528.84
2023-11-24T00:20:09.349Z,101532.38
2023-11-24T00:22:35.922Z,101522.91
2023-11-24T00:25:03.058Z,101522.81
2023-11-24T00:27:29.568Z,101532.41
2023-11-24T00:29:57.140Z,101521.13
2023-11-24T00:32:24.606Z,101518.53
2023-11-24T00:34:51.205Z,101515.94
2023-11-24T00:37:18.512Z,101509.09
2023-11-24T00:39:45.561Z,101513.38
2023-11-24T00:42:12.070Z,101513.38
2023-11-24T00:44:38.570Z,101511.69
2023-11-24T00:47:05.970Z,101517.84
2023-11-24T00:49:33.402Z,101509.28
2023-11-24T00:51:59.950Z,101511.06
2023-11-24T00:54:26.479Z,101508.50
2023-11-24T00:56:52.975Z,101493.09
2023-11-24T00:59:19.582Z,101483.63
2023-11-24T01:01:46.142Z,101473.31
2023-11-24T01:04:12.704Z,101476.88
2023-11-24T01:06:39.555Z,101476.09
2023-11-24T01:09:06.349Z,101465.84
2023-11-24T01:11:33.667Z,101477.25
2023-11-24T01:14:00.290Z,101477.34
2023-11-24T01:16:26.740Z,101481.72
2023-11-24T01:18:53.333Z,101480.88
2023-11-24T01:21:19.970Z,101472.31
2023-11-24T01:23:46.963Z,101473.19
2023-11-24T01:26:13.441Z,101470.69
2023-11-24T01:28:40.148Z,101473.31
2023-11-24T01:31:07.232Z,101482.84
2023-11-24T01:33:33.992Z,101482.84
2023-11-24T01:36:02.129Z,101482.91
2023-11-24T01:38:29.695Z,101479.38
2023-11-24T01:40:56.133Z,101477.56
2023-11-24T01:43:22.649Z,101480.22
2023-11-24T01:45:49.323Z,101484.56
2023-11-24T01:48:18.363Z,101483.75
2023-11-24T01:50:44.993Z,101471.72
2023-11-24T01:53:11.762Z,101477.81
2023-11-24T01:55:38.418Z,101478.66
2023-11-24T01:58:05.351Z,101478.72
2023-11-24T02:00:34.461Z,101483.97
2023-11-24T02:03:01.113Z,101482.22
2023-11-24T02:05:27.813Z,101492.66
2023-11-24T02:07:54.596Z,101487.50
2023-11-24T02:10:22.016Z,101482.31
2023-11-24T02:12:48.573Z,101485.72
2023-11-24T02:15:15.902Z,101481.38
2023-11-24T02:17:42.473Z,101480.44
2023-11-24T02:20:14.673Z,101474.41
2023-11-24T02:22:43.255Z,101477.84
2023-11-24T02:25:11.865Z,101475.31
2023-11-24T02:27:38.397Z,101458.00
2023-11-24T02:30:06.768Z,101457.16
2023-11-24T02:32:34.813Z,101452.03
2023-11-24T02:35:02.078Z,101450.41
2023-11-24T02:37:28.666Z,101445.25
2023-11-24T02:39:55.217Z,101447.91
2023-11-24T02:42:21.935Z,101448.75
2023-11-24T02:44:48.453Z,101431.59
2023-11-24T02:47:14.973Z,101431.69
2023-11-24T02:49:41.406Z,101434.31
2023-11-24T02:52:09.099Z,101429.28
2023-11-24T02:54:35.579Z,101421.59
2023-11-24T02:57:02.451Z,101423.31
2023-11-24T02:59:28.961Z,101417.28
2023-11-24T03:01:55.676Z,101407.81
2023-11-24T03:04:23.004Z,101408.66
2023-11-24T03:06:49.626Z,101407.75
2023-11-24T03:09:17.569Z,101419.00
2023-11-24T03:11:44.100Z,101402.63
2023-11-24T03:14:10.637Z,101407.97
2023-11-24T03:16:37.126Z,101408.09
2023-11-24T03:19:04.405Z,101415.13
2023-11-24T03:21:32.462Z,101417.75
2023-11-24T03:23:58.978Z,101416.97
2023-11-24T03:26:25.610Z,101410.97
2023-11-24T03:28:52.274Z,101404.13
2023-11-24T03:31:18.775Z,101410.25
2023-11-24T03:33:45.273Z,101410.34
2023-11-24T03:36:11.971Z,101407.81
2023-11-24T03:38:38.460Z,101407.00
2023-11-24T03:41:04.976Z,101394.94
2023-11-24T03:43:31.431Z,101389.78
2023-11-24T03:45:58.032Z,101395.81
2023-11-24T03:48:24.527Z,101400.06
2023-11-24T03:50:54.425Z,101393.22
2023-11-24T03:53:21.093Z,101400.16
2023-11-24T03:55:48.504Z,101397.56
2023-11-24T03:58:15.356Z,101397.53
2023-11-24T04:00:42.195Z,101396.66
2023-11-24T04:03:08.957Z,101398.41
2023-11-24T04:05:35.454Z,101385.53
2023-11-24T04:08:02.183Z,101370.97
2023-11-24T04:10:28.705Z,101372.69
2023-11-24T04:12:55.302Z,101378.84
2023-11-24T04:15:21.799Z,101381.44
2023-11-24T04:17:48.419Z,101381.53
2023-11-24T04:20:15.669Z,101398.75
2023-11-24T04:22:42.223Z,101391.06
2023-11-24T04:25:11.635Z,101405.69
2023-11-24T04:27:38.685Z,101391.19
2023-11-24T04:30:06.552Z,101387.16
2023-11-24T04:32:33.630Z,101394.31
2023-11-24T04:35:00.299Z,101360.88
2023-11-24T04:37:26.968Z,101346.56
2023-11-24T04:39:53.579Z,101349.47
2023-11-24T04:42:21.653Z,101345.41
2023-11-24T04:44:48.217Z,101336.06
2023-11-24T04:47:15.339Z,101337.81
2023-11-24T04:49:41.904Z,101337.06
2023-11-24T04:52:08.473Z,101346.66
2023-11-24T04:54:35.019Z,101344.06
2023-11-24T04:57:01.549Z,101347.50
2023-11-24T04:59:28.828Z,101346.66
2023-11-24T05:01:55.655Z,101344.16
2023-11-24T05:04:22.371Z,101347.53
2023-11-24T05:06:48.999Z,101341.50
2023-11-24T05:09:15.685Z,101335.41
2023-11-24T05:11:42.183Z,101349.25
2023-11-24T05:14:08.816Z,101351.84
2023-11-24T05:16:35.383Z,101359.59
2023-11-24T05:19:01.961Z,101343.19
2023-11-24T05:21:28.513Z,101344.06
2023-11-24T05:23:55.108Z,101345.84
2023-11-24T05:26:24.008Z,101346.66
2023-11-24T05:28:50.457Z,101344.06
2023-11-24T05:31:17.191Z,101331.97
2023-11-24T05:33:43.784Z,101331.16
2023-11-24T05:36:10.816Z,101322.47
2023-11-24T05:38:40.419Z,101325.06
2023-11-24T05:41:07.411Z,101333.63
2023-11-24T05:43:33.993Z,101325.88
2023-11-24T05:46:01.764Z,101330.22
2023-11-24T05:48:30.139Z,101324.22
2023-11-24T05:50:57.385Z,101320.78
2023-11-24T05:53:23.936Z,101309.69
2023-11-24T05:55:50.478Z,101314.94
2023-11-24T05:58:18.367Z,101315.00
2023-11-24T06:00:45.281Z,101309.00
2023-11-24T06:03:11.847Z,101295.19
2023-11-24T06:05:38.476Z,101307.34
2023-11-24T06:08:06.100Z,101305.59
2023-11-24T06:10:33.259Z,101299.59
2023-11-24T06:12:59.897Z,101303.00
2023-11-24T06:15:27.340Z,101307.34
2023-11-24T06:17:54.672Z,101312.50
2023-11-24T06:20:21.285Z,101312.53
2023-11-24T06:22:48.685Z,101311.78
2023-11-24T06:25:17.021Z,101329.16
2023-11-24T06:27:44.709Z,101350.78
2023-11-24T06:30:11.971Z,101334.66
2023-11-24T06:32:38.551Z,101325.38
2023-11-24T06:35:07.759Z,101315.25
2023-11-24T06:37:34.687Z,101317.97
2023-11-24T06:40:04.183Z,101310.28
2023-11-24T06:42:31.811Z,101305.97
2023-11-24T06:44:58.432Z,101298.25
2023-11-24T06:47:25.155Z,101317.25
2023-11-24T06:49:51.761Z,101336.16
2023-11-24T06:52:18.694Z,101297.41
2023-11-24T06:54:45.954Z,101318.22
2023-11-24T06:57:12.670Z,101314.09
2023-11-24T06:59:39.293Z,101312.50
2023-11-24T07:02:06.163Z,101314.25
2023-11-24T07:04:32.758Z,101313.41
2023-11-24T07:06:59.521Z,101316.03
2023-11-24T07:09:26.211Z,101311.72
2023-11-24T07:11:55.415Z,101318.63
2023-11-24T07:14:21.976Z,101322.84
2023-11-24T07:16:48.945Z,101333.19
2023-11-24T07:19:17.758Z,101343.53
2023-11-24T07:21:44.476Z,101356.44
2023-11-24T07:24:11.871Z,101350.50
2023-11-24T07:26:38.558Z,101323.88
2023-11-24T07:29:05.011Z,101317.97
2023-11-24T07:31:31.623Z,101328.47
2023-11-24T07:33:58.087Z,101337.19
2023-11-24T07:36:24.742Z,101338.97
2023-11-24T07:38:51.188Z,101319.22
2023-11-24T07:41:17.789Z,101317.50
2023-11-24T07:43:44.290Z,101308.91
2023-11-24T07:46:12.268Z,101314.94
2023-11-24T07:48:39.251Z,101317.50
2023-11-24T07:51:07.137Z,101313.09
2023-11-24T07:53:34.768Z,101307.91
2023-11-24T07:56:02.002Z,101328.53
2023-11-24T07:58:31.132Z,101333.78
2023-11-24T08:00:57.891Z,101338.09
2023-11-24T08:03:25.638Z,101322.69
2023-11-24T08:05:53.867Z,101310.69
2023-11-24T08:08:21.347Z,101309.13
2023-11-24T08:10:48.198Z,101304.94
2023-11-24T08:13:15.085Z,101301.41
2023-11-24T08:15:41.800Z,101307.47
2023-11-24T08:18:08.527Z,101317.88
2023-11-24T08:20:35.850Z,101308.47
2023-11-24T08:23:02.369Z,101295.59
2023-11-24T08:25:28.870Z,101300.78
2023-11-24T08:27:55.360Z,101297.28
2023-11-24T08:30:21.904Z,101293.03
2023-11-24T08:32:49.906Z,101284.38
2023-11-24T08:35:16.775Z,101296.38
2023-11-24T08:37:43.436Z,101276.59
2023-11-24T08:40:15.958Z,101285.09
2023-11-24T08:42:43.810Z,101277.28
2023-11-24T08:45:10.703Z,101290.00
2023-11-24T08:47:37.203Z,101283.97
2023-11-24T08:50:04.542Z,101296.06
2023-11-24T08:52:31.032Z,101279.78
2023-11-24T08:54:57.649Z,101259.28
2023-11-24T08:57:24.401Z,101244.72
2023-11-24T08:59:50.902Z,101243.19
2023-11-24T09:02:17.464Z,101246.81
2023-11-24T09:04:46.103Z,101239.22
2023-11-24T09:07:13.526Z,101240.22
2023-11-24T09:09:42.623Z,101239.28
2023-11-24T09:12:09.243Z,101244.31
2023-11-24T09:14:39.640Z,101243.38
2023-11-24T09:17:06.378Z,101238.09
2023-11-24T09:19:33.585Z,101241.50
2023-11-24T09:22:05.196Z,101230.19
2023-11-24T09:24:31.816Z,101227.50
2023-11-24T09:26:58.354Z,101228.25
2023-11-24T09:29:26.868Z,101222.91
2023-11-24T09:31:54.234Z,101221.00
2023-11-24T09:34:20.970Z,101218.13
2023-11-24T09:36:47.909Z,101210.88
2023-11-24T09:39:22.057Z,101216.59
2023-11-24T09:41:59.620Z,101232.09
2023-11-24T09:44:26.956Z,101239.13
2023-11-24T09:46:54.136Z,101239.38
2023-11-24T09:49:24.151Z,101264.84
2023-11-24T09:51:50.728Z,101256.53
2023-11-24T09:54:19.012Z,101256.59
2023-11-24T09:56:45.929Z,101253.34
2023-11-24T09:59:13.789Z,101247.47
2023-11-24T10:01:40.846Z,101252.72
2023-11-24T10:04:07.913Z,101254.50
2023-11-24T10:06:43.386Z,101251.13
2023-11-24T10:09:15.905Z,101251.81
2023-11-24T10:11:42.445Z,101246.44
2023-11-24T10:14:12.163Z,101236.75
2023-11-24T10:16:41.969Z,101227.78
2023-11-24T10:19:19.367Z,101225.72
2023-11-24T10:21:48.505Z,101224.56
2023-11-24T10:24:15.045Z,101218.22
2023-11-24T10:26:43.427Z,101220.75
2023-11-24T10:29:10.624Z,101215.72
2023-11-24T10:31:37.318Z,101202.88
2023-11-24T10:34:04.223Z,101210.56
2023-11-24T10:36:31.720Z,101203.72
2023-11-24T10:39:04.588Z,101199.41
2023-11-24T10:41:37.515Z,101194.94
2023-11-24T10:44:05.169Z,101197.53
2023-11-24T10:46:37.782Z,101185.34
2023-11-24T10:49:15.006Z,101185.81
2023-11-24T10:51:53.464Z,101189.28
2023-11-24T10:54:39.693Z,101189.38
2023-11-24T10:57:11.914Z,101195.53
2023-11-24T10:59:39.547Z,101189.72
2023-11-24T11:02:12.115Z,101172.84
2023-11-24T11:04:53.689Z,101163.47
2023-11-24T11:07:28.778Z,101164.09
2023-11-24T11:10:03.973Z,101158.75
2023-11-24T11:12:34.947Z,101151.84
2023-11-24T11:15:02.482Z,101159.69
2023-11-24T11:17:29.042Z,101147.66
2023-11-24T11:20:00.569Z,101137.13
2023-11-24T11:22:34.413Z,101145.50
2023-11-24T11:25:23.869Z,101133.19
2023-11-24T11:27:50.641Z,101126.81
2023-11-24T11:30:23.202Z,101132.44
2023-11-24T11:33:15.792Z,101133.19
2023-11-24T11:35:43.469Z,101144.66
2023-11-24T11:38:13.135Z,101137.19
2023-11-24T11:40:44.612Z,101132.53
2023-11-24T11:43:14.400Z,101119.84
2023-11-24T11:45:51.849Z,101132.06
2023-11-24T11:48:21.078Z,101133.06
2023-11-24T11:50:59.144Z,101119.28
2023-11-24T11:53:26.990Z,101115.94
2023-11-24T11:55:57.642Z,101111.75
2023-11-24T11:58:25.980Z,101114.34
2023-11-24T12:00:54.534Z,101115.97
2023-11-24T12:03:24.197Z,101098.34
2023-11-24T12:05:54.983Z,101120.34
2023-11-24T12:08:24.922Z,101093.47
2023-11-24T12:10:51.389Z,101086.53
2023-11-24T12:13:17.929Z,101090.88
2023-11-24T12:15:44.648Z,101085.50
2023-11-24T12:18:15.534Z,101084.50
2023-11-24T12:20:42.950Z,101085.09
2023-11-24T12:23:10.314Z,101082.06
2023-11-24T12:25:40.612Z,101079.13
2023-11-24T12:28:11.876Z,101084.16
2023-11-24T12:30:45.426Z,101085.84
2023-11-24T12:33:22.047Z,101091.72
2023-11-24T12:35:50.403Z,101083.97
2023-11-24T12:38:17.053Z,101078.25
2023-11-24T12:40:44.579Z,101080.19
2023-11-24T12:43:15.158Z,101070.97
2023-11-24T12:45:44.952Z,101076.34
2023-11-24T12:48:21.452Z,101090.19
2023-11-24T12:50:49.283Z,101086.72
2023-11-24T12:53:18.192Z,101077.34
2023-11-24T12:55:45.421Z,101092.88
2023-11-24T12:58:12.164Z,101115.41
2023-11-24T13:00:39.178Z,101119.81
2023-11-24T13:03:06.859Z,101073.59
2023-11-24T13:05:37.285Z,101070.53
2023-11-24T13:08:04.069Z,101058.69
2023-11-24T13:10:32.595Z,101064.91
2023-11-24T13:13:00.807Z,101058.06
2023-11-24T13:15:29.141Z,101072.72
2023-11-24T13:17:56.936Z,101054.63
2023-11-24T13:20:29.361Z,101065.75
2023-11-24T13:22:56.289Z,101063.97
2023-11-24T13:25:27.941Z,101070.63
2023-11-24T13:27:55.151Z,101074.81
2023-11-24T13:30:26.566Z,101060.63
2023-11-24T13:32:53.580Z,101068.06
2023-11-24T13:35:21.683Z,101082.75
2023-11-24T13:37:49.319Z,101069.03
2023-11-24T13:40:20.840Z,101062.22
2023-11-24T13:42:48.353Z,101072.66
2023-11-24T13:45:17.607Z,101064.91
2023-11-24T13:47:45.662Z,101064.91
2023-11-24T13:50:12.934Z,101067.59
2023-11-24T13:52:39.883Z,101047.84
2023-11-24T13:55:07.719Z,101039.44
2023-11-24T13:57:34.589Z,101039.66
2023-11-24T14:00:01.068Z,101033.69
2023-11-24T14:02:27.789Z,101032.88
2023-11-24T14:04:55.828Z,101028.59
2023-11-24T14:07:22.539Z,101031.19
2023-11-24T14:09:49.876Z,101027.81
2023-11-24T14:12:16.638Z,101026.13
2023-11-24T14:14:44.529Z,101008.09
2023-11-24T14:17:13.066Z,101020.16
2023-11-24T14:19:39.801Z,101010.66
2023-11-24T14:22:07.012Z,101032.31
2023-11-24T14:24:34.048Z,101021.22
2023-11-24T14:27:00.879Z,101028.16
2023-11-24T14:29:29.449Z,101023.88
2023-11-24T14:31:56.240Z,101034.19
2023-11-24T14:34:22.845Z,101031.59
2023-11-24T14:36:49.763Z,101034.97
2023-11-24T14:39:32.712Z,101023.59
2023-11-24T14:41:59.635Z,101030.34
2023-11-24T14:44:26.326Z,101019.94
2023-11-24T14:46:53.071Z,101025.94
2023-11-24T14:49:19.853Z,101060.38
2023-11-24T14:51:48.819Z,101064.53
2023-11-24T14:54:17.092Z,101089.38
2023-11-24T14:56:44.648Z,101071.28
2023-11-24T14:59:12.137Z,101068.88
2023-11-24T15:01:40.139Z,101062.66
2023-11-24T15:04:16.818Z,101057.06
2023-11-24T15:06:48.211Z,101054.84
2023-11-24T15:09:14.674Z,101035.28
2023-11-24T15:11:45.105Z,101042.38
2023-11-24T15:14:15.680Z,101033.81
2023-11-24T15:16:58.177Z,101030.47
2023-11-24T15:19:30.438Z,101039.22
2023-11-24T15:22:00.781Z,101053.91
2023-11-24T15:24:30.875Z,101047.97
2023-11-24T15:26:57.642Z,101046.25
2023-11-24T15:29:24.252Z,101053.88
2023-11-24T15:31:50.877Z,101049.41
2023-11-24T15:34:18.149Z,101048.38
2023-11-24T15:36:44.884Z,101075.91
2023-11-24T15:39:30.325Z,101058.66
2023-11-24T15:41:57.282Z,101075.16
2023-11-24T15:44:28.983Z,101063.22
2023-11-24T15:46:56.292Z,101066.78
2023-11-24T15:49:22.960Z,101071.19
2023-11-24T15:51:53.768Z,101051.53
2023-11-24T15:54:21.594Z,101059.38
2023-11-24T15:56:48.248Z,101061.06
2023-11-24T15:59:24.569Z,101081.72
2023-11-24T16:01:53.109Z,101100.72
2023-11-24T16:04:22.663Z,101115.53
2023-11-24T16:06:56.000Z,101108.03
2023-11-24T16:09:26.995Z,101103.16
2023-11-24T16:12:02.489Z,101099.00
2023-11-24T16:14:30.764Z,101091.50
2023-11-24T16:16:57.502Z,101088.22
2023-11-24T16:19:24.746Z,101084.03
2023-11-24T16:21:51.918Z,101091.78
2023-11-24T16:24:22.435Z,101090.13
2023-11-24T16:26:49.560Z,101092.63
2023-11-24T16:29:16.770Z,101087.38
2023-11-24T16:31:46.664Z,101104.50
2023-11-24T16:34:16.098Z,101096.72
2023-11-24T16:36:44.456Z,101089.81
2023-11-24T16:39:12.767Z,101056.47
2023-11-24T16:41:42.605Z,101082.47
2023-11-24T16:44:09.160Z,101086.16
2023-11-24T16:46:36.124Z,101081.22
2023-11-24T16:49:03.410Z,101067.63
2023-11-24T16:51:30.054Z,101077.19
2023-11-24T16:53:56.587Z,101063.53
2023-11-24T16:56:25.075Z,101053.28
2023-11-24T16:58:54.289Z,101070.50
2023-11-24T17:01:22.327Z,101059.38
2023-11-24T17:03:49.224Z,101063.75
2023-11-24T17:06:15.940Z,101068.91
2023-11-24T17:08:42.645Z,101070.63
2023-11-24T17:11:09.261Z,101070.38
2023-11-24T17:13:35.922Z,101063.31
2023-11-24T17:16:02.705Z,101065.03
2023-11-24T17:18:29.672Z,101065.84
2023-11-24T17:20:56.359Z,101063.31
2023-11-24T17:23:22.989Z,101073.63
2023-11-24T17:25:49.645Z,101076.91
2023-11-24T17:28:20.606Z,101075.00
2023-11-24T17:30:47.377Z,101077.50
2023-11-24T17:33:13.981Z,101070.53
2023-11-24T17:35:41.467Z,101073.97
2023-11-24T17:38:08.178Z,101072.25
2023-11-24T17:40:34.983Z,101079.06
2023-11-24T17:43:01.590Z,101076.44
2023-11-24T17:45:28.235Z,101083.28
2023-11-24T17:47:55.560Z,101079.81
2023-11-24T17:50:22.416Z,101081.47
2023-11-24T17:52:51.558Z,101084.88
2023-11-24T17:55:21.659Z,101083.06
2023-11-24T17:57:49.150Z,101083.91
2023-11-24T18:00:22.253Z,101086.50
2023-11-24T18:02:52.413Z,101080.50
2023-11-24T18:05:18.978Z,101083.06
2023-11-24T18:07:45.470Z,101076.06
2023-11-24T18:10:12.441Z,101065.75
2023-11-24T18:12:39.017Z,101070.94
2023-11-24T18:15:05.963Z,101071.75
2023-11-24T18:17:33.405Z,101073.41
2023-11-24T18:20:00.402Z,101066.50
2023-11-24T18:22:28.413Z,101064.72
2023-11-24T18:24:55.453Z,101060.34
2023-11-24T18:27:25.037Z,101068.91
2023-11-24T18:29:52.721Z,101059.25
2023-11-24T18:32:19.423Z,101075.34
2023-11-24T18:34:46.097Z,101083.69
2023-11-24T18:37:12.732Z,101087.03
2023-11-24T18:39:40.160Z,101075.63
2023-11-24T18:42:07.124Z,101109.13
2023-11-24T18:44:34.471Z,101117.72
2023-11-24T18:47:02.797Z,101112.94
2023-11-24T18:49:29.513Z,101109.84
2023-11-24T18:51:56.126Z,101109.94
2023-11-24T18:54:22.919Z,101110.06
2023-11-24T18:56:51.613Z,101097.25
2023-11-24T18:59:18.072Z,101096.41
2023-11-24T19:01:46.134Z,101089.50
2023-11-24T19:04:13.085Z,101094.50
2023-11-24T19:06:39.692Z,101086.78
2023-11-24T19:09:06.190Z,101106.59
2023-11-24T19:11:34.420Z,101103.16
2023-11-24T19:14:02.013Z,101110.81
2023-11-24T19:16:28.580Z,101113.34
2023-11-24T19:18:55.694Z,101118.25
2023-11-24T19:21:24.668Z,101107.94
2023-11-24T19:23:53.646Z,101141.63
2023-11-24T19:26:20.136Z,101112.50
2023-11-24T19:28:59.056Z,101107.44
2023-11-24T19:31:32.487Z,101101.44
2023-11-24T19:33:59.245Z,101107.50
2023-11-24T19:36:26.597Z,101128.13
2023-11-24T19:38:53.152Z,101146.16
2023-11-24T19:41:20.036Z,101164.22
2023-11-24T19:43:49.041Z,101165.06
2023-11-24T19:46:16.247Z,101172.03
2023-11-24T19:48:42.774Z,101163.84
2023-11-24T19:51:09.480Z,101163.28
2023-11-24T19:53:36.029Z,101168.75
2023-11-24T19:56:02.795Z,101162.25
2023-11-24T19:58:29.351Z,101146.22
2023-11-24T20:00:56.005Z,101146.44
2023-11-24T20:03:22.529Z,101144.88
2023-11-24T20:05:49.009Z,101139.84
2023-11-24T20:08:15.493Z,101149.31
2023-11-24T20:10:42.212Z,101140.69
2023-11-24T20:13:08.817Z,101140.56
2023-11-24T20:15:35.813Z,101144.88
2023-11-24T20:18:02.550Z,101147.44
2023-11-24T20:20:29.229Z,101150.75
2023-11-24T20:22:55.900Z,101165.19
2023-11-24T20:25:22.441Z,101165.75
2023-11-24T20:27:48.915Z,101168.19
2023-11-24T20:30:15.665Z,101159.56
2023-11-24T20:32:42.219Z,101161.09
2023-11-24T20:35:09.467Z,101166.16
2023-11-24T20:37:36.042Z,101170.41
2023-11-24T20:40:02.894Z,101170.31
2023-11-24T20:42:29.812Z,101184.84
2023-11-24T20:44:58.066Z,101177.13
2023-11-24T20:47:24.603Z,101182.34
2023-11-24T20:49:51.617Z,101189.22
2023-11-24T20:52:18.197Z,101193.44
2023-11-24T20:54:46.018Z,101197.66
2023-11-24T20:57:14.083Z,101201.88
2023-11-24T20:59:40.661Z,101199.31
2023-11-24T21:02:07.514Z,101202.75
2023-11-24T21:04:34.249Z,101212.25
2023-11-24T21:07:00.983Z,101206.19
2023-11-24T21:09:27.615Z,101202.72
2023-11-24T21:11:54.083Z,101205.34
2023-11-24T21:14:20.677Z,101201.81
2023-11-24T21:16:47.225Z,101215.63
2023-11-24T21:19:14.741Z,101219.94
2023-11-24T21:21:42.697Z,101219.88
2023-11-24T21:24:09.893Z,101229.28
2023-11-24T21:26:37.036Z,101218.13
2023-11-24T21:29:07.182Z,101226.75
2023-11-24T21:31:33.866Z,101224.06
2023-11-24T21:34:01.762Z,101234.31
2023-11-24T21:36:28.363Z,101240.31
2023-11-24T21:38:56.467Z,101265.28
2023-11-24T21:41:23.308Z,101298.78
2023-11-24T21:43:50.949Z,101315.50
2023-11-24T21:46:24.064Z,101291.13
2023-11-24T21:48:50.847Z,101301.88
2023-11-24T21:51:20.225Z,101288.44
2023-11-24T21:53:46.717Z,101280.88
2023-11-24T21:56:13.275Z,101290.47
2023-11-24T21:58:40.514Z,101281.09
2023-11-24T22:01:07.051Z,101298.31
2023-11-24T22:03:33.709Z,101311.25
2023-11-24T22:06:00.440Z,101324.09
2023-11-24T22:08:27.130Z,101311.84
2023-11-24T22:10:54.248Z,101321.84
2023-11-24T22:13:21.128Z,101327.66
2023-11-24T22:15:50.219Z,101325.75
2023-11-24T22:18:17.946Z,101318.78
2023-11-24T22:20:44.524Z,101312.72
2023-11-24T22:23:11.054Z,101314.47
2023-11-24T22:25:38.081Z,101288.69
2023-11-24T22:28:05.222Z,101288.78
2023-11-24T22:30:32.474Z,101283.69
2023-11-24T22:32:59.041Z,101288.06
2023-11-24T22:35:25.612Z,101300.09
2023-11-24T22:37:52.160Z,101302.66
2023-11-24T22:40:19.031Z,101301.03
2023-11-24T22:42:46.493Z,101307.03
2023-11-24T22:45:13.200Z,101319.09
2023-11-24T22:47:42.812Z,101316.56
2023-11-24T22:50:11.221Z,101320.00
2023-11-24T22:52:38.604Z,101325.19
2023-11-24T22:55:06.986Z,101332.09
2023-11-24T22:57:34.030Z,101333.00
2023-11-24T23:00:00.634Z,101332.09
2023-11-24T23:02:27.906Z,101339.00
2023-11-24T23:04:55.719Z,101346.84
2023-11-24T23:07:25.969Z,101358.91
2023-11-24T23:09:53.780Z,101364.13
2023-11-24T23:12:20.409Z,101362.53
2023-11-24T23:14:46.952Z,101366.06
2023-11-24T23:17:13.394Z,101367.03
2023-11-24T23:19:41.708Z,101360.25
2023-11-24T23:22:09.837Z,101362.03
2023-11-24T23:24:37.286Z,101358.63
2023-11-24T23:27:07.510Z,101360.47
2023-11-24T23:29:34.885Z,101357.97
2023-11-24T23:32:01.583Z,101358.94
2023-11-24T23:34:28.195Z,101368.50
2023-11-24T23:36:54.816Z,101365.13
2023-11-24T23:39:21.289Z,101375.53
2023-11-24T23:41:48.091Z,101372.16
2023-11-24T23:44:16.076Z,101373.94
2023-11-24T23:46:43.135Z,101373.16
2023-11-24T23:49:09.844Z,101379.19
2023-11-24T23:51:36.383Z,101374.13
2023-11-24T23:54:04.170Z,101379.38
2023-11-24T23:56:30.687Z,101382.84
2023-11-24T23:58:57.140Z,101385.41
